createdAt,value
2018-03-27T00:00:25.205Z,0
2018-03-27T00:01:25.398Z,0
2018-03-27T00:02:25.635Z,0
2018-03-27T00:03:25.630Z,0
2018-03-27T00:04:25.346Z,0
2018-03-27T00:05:25.442Z,0
2018-03-27T00:06:25.319Z,0
2018-03-27T00:07:25.039Z,0
2018-03-27T00:08:25.286Z,0
2018-03-27T00:09:25.305Z,0
2018-03-27T00:10:24.996Z,0
2018-03-27T00:11:24.982Z,0
2018-03-27T00:12:25.234Z,0
2018-03-27T00:13:24.951Z,0
2018-03-27T00:14:25.185Z,0
2018-03-27T00:15:25.436Z,0
2018-03-27T00:16:24.923Z,0
2018-03-27T00:17:24.885Z,0
2018-03-27T00:18:24.607Z,0
2018-03-27T00:19:25.376Z,0
2018-03-27T00:20:25.353Z,0
2018-03-27T00:21:25.131Z,0
2018-03-27T00:22:25.067Z,0
2018-03-27T00:23:25.308Z,0
2018-03-27T00:24:24.768Z,0
2018-03-27T00:25:24.755Z,0
2018-03-27T00:26:24.746Z,0
2018-03-27T00:27:24.982Z,0
2018-03-27T00:28:25.222Z,0
2018-03-27T00:29:24.435Z,0
2018-03-27T00:30:24.938Z,0
2018-03-27T00:31:24.916Z,0
2018-03-27T00:32:25.165Z,0
2018-03-27T00:33:24.627Z,0
2018-03-27T00:34:24.875Z,0
2018-03-27T00:35:24.865Z,0
2018-03-27T00:36:24.323Z,0
2018-03-27T00:37:25.085Z,0
2018-03-27T00:38:24.810Z,0
2018-03-27T00:39:24.538Z,0
2018-03-27T00:40:24.774Z,0
2018-03-27T00:41:25.022Z,0
2018-03-27T00:42:24.232Z,0
2018-03-27T00:43:24.478Z,0
2018-03-27T00:44:24.457Z,0
2018-03-27T00:45:24.179Z,0
2018-03-27T00:46:24.429Z,0
2018-03-27T00:47:24.944Z,0
2018-03-27T00:48:24.656Z,0
2018-03-27T00:49:24.382Z,0
2018-03-27T00:50:24.893Z,0
2018-03-27T00:51:24.601Z,0
2018-03-27T00:52:24.068Z,0
2018-03-27T00:53:24.844Z,0
2018-03-27T00:54:24.811Z,0
2018-03-27T00:55:24.540Z,0
2018-03-27T00:56:24.264Z,0
2018-03-27T00:57:24.772Z,0
2018-03-27T00:58:24.760Z,0
2018-03-27T00:59:24.473Z,0
2018-03-27T01:00:24.199Z,0
2018-03-27T01:01:24.184Z,0
2018-03-27T01:02:24.429Z,0
2018-03-27T01:03:24.414Z,0
2018-03-27T01:04:24.133Z,0
2018-03-27T01:05:24.633Z,0
2018-03-27T01:06:24.114Z,0
2018-03-27T01:07:24.602Z,0
2018-03-27T01:08:24.325Z,0
2018-03-27T01:09:24.309Z,0
2018-03-27T01:10:24.303Z,0
2018-03-27T01:11:23.765Z,0
2018-03-27T01:12:23.744Z,0
2018-03-27T01:13:24.503Z,0
2018-03-27T01:14:24.502Z,0
2018-03-27T01:15:23.953Z,0
2018-03-27T01:16:23.688Z,0
2018-03-27T01:17:24.439Z,0
2018-03-27T01:18:24.163Z,0
2018-03-27T01:19:24.153Z,0
2018-03-27T01:20:23.876Z,0
2018-03-27T01:21:24.432Z,0
2018-03-27T01:22:23.846Z,0
2018-03-27T01:23:23.823Z,0
2018-03-27T01:24:24.071Z,0
2018-03-27T01:25:24.062Z,0
2018-03-27T01:26:24.033Z,0
2018-03-27T01:27:24.011Z,0
2018-03-27T01:28:23.740Z,0
2018-03-27T01:29:23.979Z,0
2018-03-27T01:30:23.708Z,0
2018-03-27T01:31:23.955Z,0
2018-03-27T01:32:23.929Z,0
2018-03-27T01:33:23.658Z,0
2018-03-27T01:34:23.653Z,0
2018-03-27T01:35:23.625Z,0
2018-03-27T01:36:23.920Z,0
2018-03-27T01:37:23.851Z,0
2018-03-27T01:38:24.142Z,0
2018-03-27T01:39:23.812Z,0
2018-03-27T01:40:23.798Z,0
2018-03-27T01:41:23.779Z,0
2018-03-27T01:42:23.506Z,0
2018-03-27T01:43:23.493Z,0
2018-03-27T01:44:23.729Z,0
2018-03-27T01:45:23.714Z,0
2018-03-27T01:46:23.449Z,0
2018-03-27T01:47:23.429Z,0
2018-03-27T01:48:23.918Z,0
2018-03-27T01:49:23.426Z,0
2018-03-27T01:50:23.371Z,0
2018-03-27T01:51:23.613Z,0
2018-03-27T01:52:23.598Z,0
2018-03-27T01:53:23.323Z,0
2018-03-27T01:54:23.823Z,0
2018-03-27T01:55:23.803Z,0
2018-03-27T01:56:23.532Z,0
2018-03-27T01:57:23.517Z,0
2018-03-27T01:58:23.497Z,0
2018-03-27T01:59:23.500Z,0
2018-03-27T02:00:23.461Z,0
2018-03-27T02:01:23.701Z,0
2018-03-27T02:02:23.436Z,0
2018-03-27T02:03:22.893Z,0
2018-03-27T02:04:23.659Z,0
2018-03-27T02:05:23.411Z,0
2018-03-27T02:06:23.363Z,0
2018-03-27T02:07:23.089Z,0
2018-03-27T02:08:23.340Z,0
2018-03-27T02:09:23.068Z,0
2018-03-27T02:10:23.295Z,0
2018-03-27T02:11:23.028Z,0
2018-03-27T02:12:23.012Z,0
2018-03-27T02:13:23.247Z,0
2018-03-27T02:14:23.233Z,0
2018-03-27T02:15:23.477Z,0
2018-03-27T02:16:23.462Z,0
2018-03-27T02:17:23.179Z,0
2018-03-27T02:18:23.429Z,0
2018-03-27T02:19:23.160Z,0
2018-03-27T02:20:22.868Z,0
2018-03-27T02:21:23.112Z,0
2018-03-27T02:22:23.089Z,0
2018-03-27T02:23:23.348Z,0
2018-03-27T02:24:22.802Z,0
2018-03-27T02:25:23.042Z,0
2018-03-27T02:26:23.022Z,0
2018-03-27T02:27:23.266Z,0
2018-03-27T02:28:22.752Z,0
2018-03-27T02:29:22.971Z,0
2018-03-27T02:30:22.710Z,0
2018-03-27T02:31:22.962Z,0
2018-03-27T02:32:23.247Z,0
2018-03-27T02:33:22.917Z,0
2018-03-27T02:34:23.170Z,0
2018-03-27T02:35:22.890Z,0
2018-03-27T02:36:22.868Z,0
2018-03-27T02:37:22.853Z,0
2018-03-27T02:38:23.084Z,0
2018-03-27T02:39:23.082Z,0
2018-03-27T02:40:22.276Z,0
2018-03-27T02:41:22.780Z,0
2018-03-27T02:42:23.041Z,0
2018-03-27T02:43:23.029Z,0
2018-03-27T02:44:22.464Z,0
2018-03-27T02:45:22.980Z,0
2018-03-27T02:46:22.711Z,0
2018-03-27T02:47:22.940Z,0
2018-03-27T02:48:22.401Z,0
2018-03-27T02:49:22.904Z,0
2018-03-27T02:50:22.624Z,0
2018-03-27T02:51:22.877Z,0
2018-03-27T02:52:22.595Z,0
2018-03-27T02:53:22.578Z,0
2018-03-27T02:54:22.826Z,0
2018-03-27T02:55:22.800Z,0
2018-03-27T02:56:22.534Z,0
2018-03-27T02:57:22.529Z,0
2018-03-27T02:58:22.575Z,0
2018-03-27T02:59:22.732Z,0
2018-03-27T03:00:22.730Z,0
2018-03-27T03:01:22.443Z,0
2018-03-27T03:02:22.172Z,0
2018-03-27T03:03:22.411Z,0
2018-03-27T03:04:22.396Z,0
2018-03-27T03:05:22.389Z,0
2018-03-27T03:06:22.365Z,0
2018-03-27T03:07:22.606Z,0
2018-03-27T03:08:22.063Z,0
2018-03-27T03:09:22.303Z,0
2018-03-27T03:10:22.546Z,0
2018-03-27T03:11:22.273Z,0
2018-03-27T03:12:22.250Z,0
2018-03-27T03:13:22.250Z,0
2018-03-27T03:14:22.224Z,0
2018-03-27T03:15:22.462Z,0
2018-03-27T03:16:21.925Z,0
2018-03-27T03:17:22.164Z,0
2018-03-27T03:18:21.890Z,0
2018-03-27T03:19:22.138Z,0
2018-03-27T03:20:21.861Z,0
2018-03-27T03:21:21.843Z,0
2018-03-27T03:22:22.086Z,0
2018-03-27T03:23:22.326Z,0
2018-03-27T03:24:22.310Z,0
2018-03-27T03:25:22.027Z,0
2018-03-27T03:26:22.019Z,0
2018-03-27T03:27:22.261Z,0
2018-03-27T03:28:22.089Z,0
2018-03-27T03:29:21.981Z,0
2018-03-27T03:30:22.228Z,0
2018-03-27T03:31:22.203Z,0
2018-03-27T03:32:21.400Z,0
2018-03-27T03:33:21.646Z,0
2018-03-27T03:34:21.879Z,0
2018-03-27T03:35:21.883Z,0
2018-03-27T03:36:21.846Z,0
2018-03-27T03:37:22.089Z,0
2018-03-27T03:38:21.554Z,0
2018-03-27T03:39:21.537Z,0
2018-03-27T03:40:22.037Z,0
2018-03-27T03:41:21.244Z,0
2018-03-27T03:42:21.743Z,0
2018-03-27T03:43:21.220Z,0
2018-03-27T03:44:21.449Z,0
2018-03-27T03:45:21.703Z,0
2018-03-27T03:46:21.936Z,0
2018-03-27T03:47:21.930Z,0
2018-03-27T03:48:21.384Z,0
2018-03-27T03:49:21.878Z,0
2018-03-27T03:50:21.088Z,0
2018-03-27T03:51:21.591Z,0
2018-03-27T03:52:21.574Z,0
2018-03-27T03:53:21.303Z,0
2018-03-27T03:54:21.543Z,0
2018-03-27T03:55:21.519Z,0
2018-03-27T03:56:21.507Z,0
2018-03-27T03:57:21.485Z,0
2018-03-27T03:58:21.729Z,0
2018-03-27T03:59:21.454Z,0
2018-03-27T04:00:21.469Z,0
2018-03-27T04:01:21.420Z,0
2018-03-27T04:02:21.140Z,0
2018-03-27T04:03:20.864Z,0
2018-03-27T04:04:21.360Z,0
2018-03-27T04:05:21.351Z,0
2018-03-27T04:06:20.814Z,0
2018-03-27T04:07:21.309Z,0
2018-03-27T04:08:21.550Z,0
2018-03-27T04:09:21.535Z,0
2018-03-27T04:10:21.520Z,0
2018-03-27T04:11:21.289Z,0
2018-03-27T04:12:21.219Z,0
2018-03-27T04:13:21.466Z,0
2018-03-27T04:14:20.936Z,0
2018-03-27T04:15:21.429Z,0
2018-03-27T04:16:21.158Z,0
2018-03-27T04:17:21.137Z,0
2018-03-27T04:18:21.382Z,0
2018-03-27T04:19:21.366Z,0
2018-03-27T04:20:21.087Z,0
2018-03-27T04:21:21.078Z,0
2018-03-27T04:22:21.310Z,0
2018-03-27T04:23:21.304Z,0
2018-03-27T04:24:21.024Z,0
2018-03-27T04:25:21.264Z,0
2018-03-27T04:26:21.274Z,0
2018-03-27T04:27:21.231Z,0
2018-03-27T04:28:20.948Z,0
2018-03-27T04:29:21.201Z,0
2018-03-27T04:30:20.922Z,0
2018-03-27T04:31:20.662Z,0
2018-03-27T04:32:20.629Z,0
2018-03-27T04:33:20.602Z,0
2018-03-27T04:34:21.107Z,0
2018-03-27T04:35:20.313Z,0
2018-03-27T04:36:20.295Z,0
2018-03-27T04:37:20.797Z,0
2018-03-27T04:38:21.042Z,0
2018-03-27T04:39:21.021Z,0
2018-03-27T04:40:20.802Z,0
2018-03-27T04:41:20.480Z,0
2018-03-27T04:42:20.971Z,0
2018-03-27T04:43:20.446Z,0
2018-03-27T04:44:20.224Z,0
2018-03-27T04:45:20.675Z,0
2018-03-27T04:46:20.640Z,0
2018-03-27T04:47:20.369Z,0
2018-03-27T04:48:20.355Z,0
2018-03-27T04:49:20.337Z,0
2018-03-27T04:50:20.841Z,0
2018-03-27T04:51:20.558Z,0
2018-03-27T04:52:20.546Z,0
2018-03-27T04:53:20.523Z,0
2018-03-27T04:54:20.801Z,0
2018-03-27T04:55:20.550Z,0
2018-03-27T04:56:20.213Z,0
2018-03-27T04:57:19.937Z,0
2018-03-27T04:58:19.923Z,0
2018-03-27T04:59:20.423Z,0
2018-03-27T05:00:20.673Z,0
2018-03-27T05:01:20.392Z,0
2018-03-27T05:02:20.418Z,0
2018-03-27T05:03:20.091Z,0
2018-03-27T05:04:20.341Z,0
2018-03-27T05:05:20.325Z,0
2018-03-27T05:06:20.306Z,0
2018-03-27T05:07:19.767Z,5
2018-03-27T05:08:20.278Z,5
2018-03-27T05:09:19.996Z,5
2018-03-27T05:10:20.230Z,5
2018-03-27T05:11:20.222Z,5
2018-03-27T05:12:20.197Z,5
2018-03-27T05:13:20.182Z,5
2018-03-27T05:14:20.165Z,5
2018-03-27T05:15:20.143Z,10
2018-03-27T05:16:20.127Z,10
2018-03-27T05:17:20.375Z,10
2018-03-27T05:18:20.094Z,10
2018-03-27T05:19:19.823Z,15
2018-03-27T05:20:20.327Z,15
2018-03-27T05:21:19.910Z,15
2018-03-27T05:22:20.038Z,15
2018-03-27T05:23:19.499Z,15
2018-03-27T05:24:20.246Z,15
2018-03-27T05:25:20.251Z,15
2018-03-27T05:26:20.214Z,20
2018-03-27T05:27:19.938Z,25
2018-03-27T05:28:19.672Z,25
2018-03-27T05:29:19.653Z,30
2018-03-27T05:30:19.374Z,30
2018-03-27T05:31:19.870Z,30
2018-03-27T05:32:19.600Z,30
2018-03-27T05:33:20.099Z,35
2018-03-27T05:34:19.322Z,35
2018-03-27T05:35:19.808Z,35
2018-03-27T05:36:19.280Z,35
2018-03-27T05:37:20.029Z,30
2018-03-27T05:38:19.755Z,30
2018-03-27T05:39:19.222Z,35
2018-03-27T05:40:19.723Z,40
2018-03-27T05:41:19.708Z,45
2018-03-27T05:42:19.689Z,50
2018-03-27T05:43:19.412Z,50
2018-03-27T05:44:19.655Z,50
2018-03-27T05:45:19.637Z,45
2018-03-27T05:46:19.674Z,40
2018-03-27T05:47:19.340Z,35
2018-03-27T05:48:19.071Z,35
2018-03-27T05:49:19.829Z,35
2018-03-27T05:50:19.553Z,40
2018-03-27T05:51:19.830Z,45
2018-03-27T05:52:19.526Z,50
2018-03-27T05:53:18.984Z,60
2018-03-27T05:54:19.237Z,65
2018-03-27T05:55:19.748Z,65
2018-03-27T05:56:19.192Z,65
2018-03-27T05:57:19.436Z,65
2018-03-27T05:58:19.682Z,65
2018-03-27T05:59:19.398Z,65
2018-03-27T06:00:19.124Z,65
2018-03-27T06:01:19.361Z,65
2018-03-27T06:02:19.095Z,70
2018-03-27T06:03:19.331Z,75
2018-03-27T06:04:18.805Z,80
2018-03-27T06:05:18.791Z,85
2018-03-27T06:06:18.765Z,85
2018-03-27T06:07:19.271Z,80
2018-03-27T06:08:19.253Z,80
2018-03-27T06:09:19.007Z,75
2018-03-27T06:10:19.212Z,80
2018-03-27T06:11:19.655Z,85
2018-03-27T06:12:18.919Z,95
2018-03-27T06:13:19.432Z,105
2018-03-27T06:14:19.145Z,110
2018-03-27T06:15:19.135Z,100
2018-03-27T06:16:19.366Z,90
2018-03-27T06:17:19.096Z,90
2018-03-27T06:18:18.568Z,95
2018-03-27T06:19:19.114Z,100
2018-03-27T06:20:18.539Z,110
2018-03-27T06:21:19.285Z,120
2018-03-27T06:22:18.754Z,120
2018-03-27T06:23:18.994Z,120
2018-03-27T06:24:18.993Z,115
2018-03-27T06:25:18.971Z,110
2018-03-27T06:26:18.948Z,105
2018-03-27T06:27:19.198Z,120
2018-03-27T06:28:18.400Z,130
2018-03-27T06:29:18.967Z,140
2018-03-27T06:30:18.368Z,135
2018-03-27T06:31:19.122Z,120
2018-03-27T06:32:18.858Z,110
2018-03-27T06:33:18.838Z,110
2018-03-27T06:34:18.558Z,110
2018-03-27T06:35:19.066Z,105
2018-03-27T06:36:18.527Z,105
2018-03-27T06:37:18.769Z,105
2018-03-27T06:38:18.495Z,95
2018-03-27T06:39:18.741Z,80
2018-03-27T06:40:18.721Z,70
2018-03-27T06:41:18.457Z,60
2018-03-27T06:42:19.401Z,60
2018-03-27T06:43:18.676Z,60
2018-03-27T06:44:18.922Z,70
2018-03-27T06:45:18.385Z,75
2018-03-27T06:46:18.627Z,80
2018-03-27T06:47:18.356Z,100
2018-03-27T06:48:18.072Z,120
2018-03-27T06:49:18.838Z,140
2018-03-27T06:50:18.565Z,155
2018-03-27T06:51:18.283Z,165
2018-03-27T06:52:18.528Z,170
2018-03-27T06:53:18.520Z,185
2018-03-27T06:54:18.817Z,200
2018-03-27T06:55:18.756Z,205
2018-03-27T06:56:18.468Z,200
2018-03-27T06:57:18.196Z,185
2018-03-27T06:58:18.214Z,170
2018-03-27T06:59:18.272Z,140
2018-03-27T07:00:18.143Z,130
2018-03-27T07:01:18.122Z,130
2018-03-27T07:02:18.387Z,120
2018-03-27T07:03:18.643Z,115
2018-03-27T07:04:18.626Z,120
2018-03-27T07:05:18.828Z,140
2018-03-27T07:06:18.691Z,155
2018-03-27T07:07:18.312Z,170
2018-03-27T07:08:18.280Z,190
2018-03-27T07:09:18.291Z,215
2018-03-27T07:10:18.341Z,245
2018-03-27T07:11:17.475Z,245
2018-03-27T07:12:18.294Z,235
2018-03-27T07:13:17.934Z,235
2018-03-27T07:14:18.226Z,235
2018-03-27T07:15:17.977Z,240
2018-03-27T07:16:18.231Z,245
2018-03-27T07:17:17.875Z,240
2018-03-27T07:18:18.439Z,220
2018-03-27T07:19:18.103Z,195
2018-03-27T07:20:17.850Z,195
2018-03-27T07:21:18.127Z,210
2018-03-27T07:22:18.307Z,235
2018-03-27T07:23:18.033Z,250
2018-03-27T07:24:17.753Z,255
2018-03-27T07:25:18.005Z,245
2018-03-27T07:26:17.466Z,235
2018-03-27T07:27:17.454Z,230
2018-03-27T07:28:17.949Z,215
2018-03-27T07:29:17.420Z,205
2018-03-27T07:30:17.674Z,205
2018-03-27T07:31:17.916Z,210
2018-03-27T07:32:17.890Z,225
2018-03-27T07:33:17.901Z,240
2018-03-27T07:34:17.616Z,240
2018-03-27T07:35:18.106Z,240
2018-03-27T07:36:18.090Z,255
2018-03-27T07:37:17.567Z,280
2018-03-27T07:38:17.801Z,295
2018-03-27T07:39:18.046Z,285
2018-03-27T07:40:17.766Z,275
2018-03-27T07:41:17.756Z,275
2018-03-27T07:42:17.995Z,295
2018-03-27T07:43:17.727Z,330
2018-03-27T07:44:17.719Z,360
2018-03-27T07:45:17.436Z,360
2018-03-27T07:46:17.423Z,345
2018-03-27T07:47:17.917Z,295
2018-03-27T07:48:17.394Z,245
2018-03-27T07:49:17.379Z,205
2018-03-27T07:50:17.100Z,175
2018-03-27T07:51:17.083Z,165
2018-03-27T07:52:17.592Z,165
2018-03-27T07:53:17.567Z,170
2018-03-27T07:54:17.857Z,180
2018-03-27T07:55:17.030Z,185
2018-03-27T07:56:17.269Z,190
2018-03-27T07:57:17.266Z,195
2018-03-27T07:58:17.577Z,195
2018-03-27T07:59:17.483Z,200
2018-03-27T08:00:16.956Z,200
2018-03-27T08:01:17.707Z,210
2018-03-27T08:02:17.437Z,215
2018-03-27T08:03:17.684Z,215
2018-03-27T08:04:17.666Z,205
2018-03-27T08:05:17.135Z,195
2018-03-27T08:06:17.118Z,220
2018-03-27T08:07:17.370Z,255
2018-03-27T08:08:17.090Z,300
2018-03-27T08:09:17.339Z,300
2018-03-27T08:10:17.315Z,265
2018-03-27T08:11:17.940Z,235
2018-03-27T08:12:17.287Z,225
2018-03-27T08:13:17.277Z,225
2018-03-27T08:14:17.269Z,220
2018-03-27T08:15:16.993Z,230
2018-03-27T08:16:17.492Z,235
2018-03-27T08:17:17.480Z,240
2018-03-27T08:18:17.203Z,245
2018-03-27T08:19:16.927Z,245
2018-03-27T08:20:16.399Z,240
2018-03-27T08:21:17.165Z,235
2018-03-27T08:22:17.438Z,240
2018-03-27T08:23:16.614Z,240
2018-03-27T08:24:17.415Z,245
2018-03-27T08:25:17.099Z,235
2018-03-27T08:26:17.086Z,240
2018-03-27T08:27:17.329Z,250
2018-03-27T08:28:17.319Z,275
2018-03-27T08:29:17.128Z,310
2018-03-27T08:30:16.764Z,320
2018-03-27T08:31:16.750Z,325
2018-03-27T08:32:16.997Z,335
2018-03-27T08:33:17.239Z,360
2018-03-27T08:34:16.450Z,355
2018-03-27T08:35:16.442Z,350
2018-03-27T08:36:16.860Z,330
2018-03-27T08:37:16.926Z,330
2018-03-27T08:38:17.178Z,330
2018-03-27T08:39:17.157Z,330
2018-03-27T08:40:16.626Z,335
2018-03-27T08:41:16.873Z,335
2018-03-27T08:42:16.339Z,325
2018-03-27T08:43:16.843Z,330
2018-03-27T08:44:16.570Z,325
2018-03-27T08:45:16.816Z,330
2018-03-27T08:46:16.542Z,330
2018-03-27T08:47:16.529Z,325
2018-03-27T08:48:16.257Z,320
2018-03-27T08:49:17.019Z,320
2018-03-27T08:50:16.750Z,315
2018-03-27T08:51:16.994Z,330
2018-03-27T08:52:16.203Z,340
2018-03-27T08:53:16.968Z,360
2018-03-27T08:54:16.771Z,365
2018-03-27T08:55:16.942Z,365
2018-03-27T08:56:17.140Z,355
2018-03-27T08:57:16.402Z,345
2018-03-27T08:58:16.404Z,350
2018-03-27T08:59:16.897Z,350
2018-03-27T09:00:16.366Z,350
2018-03-27T09:01:16.604Z,345
2018-03-27T09:02:16.597Z,355
2018-03-27T09:03:16.348Z,360
2018-03-27T09:04:16.315Z,360
2018-03-27T09:05:16.356Z,365
2018-03-27T09:06:16.593Z,365
2018-03-27T09:07:16.019Z,360
2018-03-27T09:08:16.265Z,340
2018-03-27T09:09:16.775Z,315
2018-03-27T09:10:16.497Z,315
2018-03-27T09:11:15.972Z,345
2018-03-27T09:12:16.732Z,355
2018-03-27T09:13:16.248Z,340
2018-03-27T09:14:16.713Z,315
2018-03-27T09:15:15.937Z,305
2018-03-27T09:16:16.686Z,300
2018-03-27T09:17:16.159Z,305
2018-03-27T09:18:16.400Z,325
2018-03-27T09:19:16.652Z,350
2018-03-27T09:20:16.380Z,360
2018-03-27T09:21:16.627Z,340
2018-03-27T09:22:16.604Z,315
2018-03-27T09:23:16.367Z,295
2018-03-27T09:24:16.590Z,270
2018-03-27T09:25:16.320Z,270
2018-03-27T09:26:16.319Z,285
2018-03-27T09:27:16.296Z,305
2018-03-27T09:28:16.537Z,310
2018-03-27T09:29:16.274Z,325
2018-03-27T09:30:16.006Z,340
2018-03-27T09:31:16.029Z,350
2018-03-27T09:32:16.229Z,350
2018-03-27T09:33:15.958Z,360
2018-03-27T09:34:16.218Z,360
2018-03-27T09:35:16.188Z,345
2018-03-27T09:36:15.916Z,330
2018-03-27T09:37:16.165Z,315
2018-03-27T09:38:16.163Z,295
2018-03-27T09:39:16.138Z,275
2018-03-27T09:40:16.439Z,260
2018-03-27T09:41:15.598Z,250
2018-03-27T09:42:15.969Z,240
2018-03-27T09:43:16.355Z,235
2018-03-27T09:44:16.092Z,230
2018-03-27T09:45:15.819Z,225
2018-03-27T09:46:16.326Z,230
2018-03-27T09:47:15.784Z,220
2018-03-27T09:48:15.517Z,225
2018-03-27T09:49:15.765Z,230
2018-03-27T09:50:15.748Z,245
2018-03-27T09:51:15.492Z,265
2018-03-27T09:52:15.721Z,270
2018-03-27T09:53:15.964Z,300
2018-03-27T09:54:15.957Z,335
2018-03-27T09:55:15.947Z,360
2018-03-27T09:56:15.929Z,370
2018-03-27T09:57:15.922Z,385
2018-03-27T09:58:15.910Z,390
2018-03-27T09:59:15.376Z,395
2018-03-27T10:00:15.617Z,395
2018-03-27T10:01:15.609Z,395
2018-03-27T10:02:16.127Z,395
2018-03-27T10:03:15.837Z,385
2018-03-27T10:04:15.578Z,360
2018-03-27T10:05:15.818Z,335
2018-03-27T10:06:15.810Z,320
2018-03-27T10:07:15.278Z,295
2018-03-27T10:08:15.262Z,285
2018-03-27T10:09:15.776Z,275
2018-03-27T10:10:15.247Z,270
2018-03-27T10:11:15.489Z,270
2018-03-27T10:12:15.787Z,265
2018-03-27T10:13:15.214Z,260
2018-03-27T10:14:15.454Z,255
2018-03-27T10:15:14.921Z,255
2018-03-27T10:16:15.434Z,260
2018-03-27T10:17:15.421Z,255
2018-03-27T10:18:15.148Z,260
2018-03-27T10:19:15.402Z,265
2018-03-27T10:20:15.381Z,260
2018-03-27T10:21:15.624Z,260
2018-03-27T10:22:14.869Z,255
2018-03-27T10:23:15.611Z,255
2018-03-27T10:24:15.593Z,255
2018-03-27T10:25:15.577Z,250
2018-03-27T10:26:15.055Z,250
2018-03-27T10:27:15.296Z,255
2018-03-27T10:28:15.799Z,265
2018-03-27T10:29:15.537Z,280
2018-03-27T10:30:15.520Z,290
2018-03-27T10:31:15.258Z,290
2018-03-27T10:32:15.767Z,280
2018-03-27T10:33:15.222Z,290
2018-03-27T10:34:15.216Z,295
2018-03-27T10:35:15.495Z,325
2018-03-27T10:36:15.191Z,335
2018-03-27T10:37:15.435Z,335
2018-03-27T10:38:14.906Z,355
2018-03-27T10:39:15.423Z,375
2018-03-27T10:40:15.145Z,385
2018-03-27T10:41:15.401Z,395
2018-03-27T10:42:15.118Z,395
2018-03-27T10:43:15.107Z,380
2018-03-27T10:44:15.112Z,370
2018-03-27T10:45:15.342Z,360
2018-03-27T10:46:14.812Z,360
2018-03-27T10:47:15.059Z,355
2018-03-27T10:48:15.567Z,355
2018-03-27T10:49:15.294Z,360
2018-03-27T10:50:15.026Z,355
2018-03-27T10:51:15.016Z,345
2018-03-27T10:52:15.316Z,340
2018-03-27T10:53:15.295Z,345
2018-03-27T10:54:14.976Z,355
2018-03-27T10:55:15.535Z,360
2018-03-27T10:56:14.956Z,355
2018-03-27T10:57:15.205Z,335
2018-03-27T10:58:15.194Z,330
2018-03-27T10:59:14.928Z,315
2018-03-27T11:00:14.914Z,315
2018-03-27T11:01:15.412Z,300
2018-03-27T11:02:14.885Z,300
2018-03-27T11:03:15.130Z,310
2018-03-27T11:04:15.380Z,325
2018-03-27T11:05:15.116Z,335
2018-03-27T11:06:15.094Z,330
2018-03-27T11:07:14.570Z,335
2018-03-27T11:08:15.342Z,325
2018-03-27T11:09:15.325Z,310
2018-03-27T11:10:15.070Z,315
2018-03-27T11:11:15.041Z,305
2018-03-27T11:12:15.343Z,285
2018-03-27T11:13:15.015Z,280
2018-03-27T11:14:15.279Z,290
2018-03-27T11:15:14.997Z,290
2018-03-27T11:16:15.258Z,295
2018-03-27T11:17:14.979Z,300
2018-03-27T11:18:14.963Z,315
2018-03-27T11:19:14.699Z,310
2018-03-27T11:20:14.951Z,295
2018-03-27T11:21:14.675Z,285
2018-03-27T11:22:14.925Z,280
2018-03-27T11:23:15.172Z,270
2018-03-27T11:24:14.384Z,260
2018-03-27T11:25:14.628Z,250
2018-03-27T11:26:15.126Z,245
2018-03-27T11:27:14.863Z,240
2018-03-27T11:28:14.849Z,255
2018-03-27T11:29:15.264Z,270
2018-03-27T11:30:14.832Z,290
2018-03-27T11:31:14.813Z,320
2018-03-27T11:32:14.800Z,345
2018-03-27T11:33:15.053Z,365
2018-03-27T11:34:14.534Z,360
2018-03-27T11:35:14.768Z,355
2018-03-27T11:36:14.757Z,370
2018-03-27T11:37:15.054Z,385
2018-03-27T11:38:14.804Z,390
2018-03-27T11:39:14.718Z,395
2018-03-27T11:40:14.704Z,400
2018-03-27T11:41:14.706Z,415
2018-03-27T11:42:14.686Z,410
2018-03-27T11:43:14.930Z,425
2018-03-27T11:44:14.408Z,440
2018-03-27T11:45:14.682Z,425
2018-03-27T11:46:14.379Z,410
2018-03-27T11:47:14.372Z,400
2018-03-27T11:48:14.353Z,385
2018-03-27T11:49:14.623Z,370
2018-03-27T11:50:14.887Z,345
2018-03-27T11:51:14.332Z,320
2018-03-27T11:52:14.322Z,290
2018-03-27T11:53:14.304Z,275
2018-03-27T11:54:14.836Z,265
2018-03-27T11:55:14.797Z,245
2018-03-27T11:56:14.274Z,225
2018-03-27T11:57:14.008Z,210
2018-03-27T11:58:14.765Z,200
2018-03-27T11:59:14.245Z,200
2018-03-27T12:00:14.485Z,195
2018-03-27T12:01:14.473Z,190
2018-03-27T12:02:14.724Z,185
2018-03-27T12:03:14.715Z,175
2018-03-27T12:04:14.443Z,170
2018-03-27T12:05:14.432Z,170
2018-03-27T12:06:14.165Z,185
2018-03-27T12:07:14.156Z,210
2018-03-27T12:08:14.414Z,250
2018-03-27T12:09:14.645Z,275
2018-03-27T12:10:14.119Z,285
2018-03-27T12:11:14.372Z,285
2018-03-27T12:12:14.355Z,275
2018-03-27T12:13:14.596Z,270
2018-03-27T12:14:14.593Z,255
2018-03-27T12:15:14.359Z,240
2018-03-27T12:16:14.565Z,235
2018-03-27T12:17:14.291Z,240
2018-03-27T12:18:14.289Z,230
2018-03-27T12:19:14.010Z,220
2018-03-27T12:20:14.001Z,205
2018-03-27T12:21:14.244Z,195
2018-03-27T12:22:14.252Z,175
2018-03-27T12:23:13.964Z,155
2018-03-27T12:24:13.953Z,140
2018-03-27T12:25:13.938Z,135
2018-03-27T12:26:13.930Z,135
2018-03-27T12:27:14.172Z,155
2018-03-27T12:28:13.911Z,185
2018-03-27T12:29:13.893Z,220
2018-03-27T12:30:13.888Z,250
2018-03-27T12:31:13.606Z,285
2018-03-27T12:32:14.124Z,325
2018-03-27T12:33:13.844Z,375
2018-03-27T12:34:14.152Z,430
2018-03-27T12:35:13.823Z,460
2018-03-27T12:36:14.066Z,460
2018-03-27T12:37:14.050Z,445
2018-03-27T12:38:13.778Z,435
2018-03-27T12:39:13.521Z,405
2018-03-27T12:40:13.755Z,375
2018-03-27T12:41:14.004Z,335
2018-03-27T12:42:14.133Z,310
2018-03-27T12:43:13.974Z,290
2018-03-27T12:44:13.451Z,260
2018-03-27T12:45:14.209Z,240
2018-03-27T12:46:13.430Z,235
2018-03-27T12:47:14.203Z,225
2018-03-27T12:48:13.657Z,225
2018-03-27T12:49:13.649Z,225
2018-03-27T12:50:13.646Z,230
2018-03-27T12:51:13.631Z,225
2018-03-27T12:52:14.131Z,220
2018-03-27T12:53:13.896Z,215
2018-03-27T12:54:13.343Z,215
2018-03-27T12:55:13.573Z,220
2018-03-27T12:56:13.823Z,225
2018-03-27T12:57:13.547Z,225
2018-03-27T12:58:13.285Z,230
2018-03-27T12:59:13.548Z,225
2018-03-27T13:00:13.533Z,220
2018-03-27T13:01:13.497Z,235
2018-03-27T13:02:14.028Z,260
2018-03-27T13:03:14.004Z,300
2018-03-27T13:04:14.001Z,310
2018-03-27T13:05:13.725Z,295
2018-03-27T13:06:13.965Z,305
2018-03-27T13:07:13.702Z,330
2018-03-27T13:08:13.421Z,330
2018-03-27T13:09:13.402Z,320
2018-03-27T13:10:13.139Z,310
2018-03-27T13:11:13.650Z,310
2018-03-27T13:12:13.627Z,310
2018-03-27T13:13:13.875Z,310
2018-03-27T13:14:13.351Z,310
2018-03-27T13:15:13.597Z,305
2018-03-27T13:16:13.839Z,305
2018-03-27T13:17:13.843Z,310
2018-03-27T13:18:13.046Z,335
2018-03-27T13:19:13.556Z,355
2018-03-27T13:20:13.803Z,365
2018-03-27T13:21:13.259Z,350
2018-03-27T13:22:13.556Z,320
2018-03-27T13:23:13.777Z,300
2018-03-27T13:24:13.505Z,280
2018-03-27T13:25:13.476Z,270
2018-03-27T13:26:13.458Z,260
2018-03-27T13:27:13.455Z,255
2018-03-27T13:28:13.450Z,255
2018-03-27T13:29:13.737Z,265
2018-03-27T13:30:13.426Z,285
2018-03-27T13:31:13.400Z,300
2018-03-27T13:32:13.532Z,310
2018-03-27T13:33:12.861Z,325
2018-03-27T13:34:13.377Z,340
2018-03-27T13:35:13.102Z,340
2018-03-27T13:36:13.090Z,335
2018-03-27T13:37:13.346Z,330
2018-03-27T13:38:13.324Z,325
2018-03-27T13:39:13.376Z,320
2018-03-27T13:40:13.296Z,325
2018-03-27T13:41:12.762Z,320
2018-03-27T13:42:13.274Z,315
2018-03-27T13:43:13.264Z,315
2018-03-27T13:44:12.990Z,315
2018-03-27T13:45:13.242Z,330
2018-03-27T13:46:12.704Z,340
2018-03-27T13:47:13.095Z,355
2018-03-27T13:48:13.269Z,365
2018-03-27T13:49:13.451Z,360
2018-03-27T13:50:12.921Z,340
2018-03-27T13:51:12.658Z,330
2018-03-27T13:52:13.157Z,315
2018-03-27T13:53:12.897Z,300
2018-03-27T13:54:13.159Z,290
2018-03-27T13:55:13.145Z,270
2018-03-27T13:56:13.108Z,250
2018-03-27T13:57:12.846Z,235
2018-03-27T13:58:13.097Z,220
2018-03-27T13:59:12.817Z,215
2018-03-27T14:00:13.058Z,220
2018-03-27T14:01:13.046Z,220
2018-03-27T14:02:13.303Z,220
2018-03-27T14:03:13.022Z,205
2018-03-27T14:04:12.792Z,185
2018-03-27T14:05:12.817Z,170
2018-03-27T14:06:12.476Z,165
2018-03-27T14:07:12.983Z,155
2018-03-27T14:08:12.962Z,155
2018-03-27T14:09:13.217Z,155
2018-03-27T14:10:12.948Z,155